Time;durP1;ratioP1;P1;durP2;ratioP2;P2;SDS_P1;SDS_P2;PMS_P1;PMS_P2;Temp;Humidity;BMP_temperature;BMP_pressure;BME280_temperature;BME280_humidity;BME280_pressure;Samples;Min_cycle;Max_cycle;Signal;HPM_P1;HPM_P2
2021/01/05 00:00:18;;;;;;;9.02;2.33;;;;;;;0.68;56.63;101994.63;5009448;28;20306;-71
2021/01/05 00:02:44;;;;;;;7.15;2.25;;;;;;;0.84;56.69;101994.94;5003471;28;20040;-71
2021/01/05 00:05:10;;;;;;;6.35;1.80;;;;;;;0.99;56.24;101986.59;4993961;28;20101;-69
2021/01/05 00:07:36;;;;;;;7.53;2.78;;;;;;;0.91;56.37;101996.75;5000877;28;20053;-71
2021/01/05 00:10:04;;;;;;;3.63;1.45;;;;;;;0.85;56.38;101987.22;4993011;28;20057;-71
2021/01/05 00:12:29;;;;;;;4.03;1.83;;;;;;;0.90;56.51;101989.88;5008697;28;20124;-71
2021/01/05 00:14:55;;;;;;;5.13;1.75;;;;;;;0.53;57.73;101999.47;5015837;28;20121;-71
2021/01/05 00:17:21;;;;;;;5.63;1.63;;;;;;;0.95;56.52;101982.22;5007609;28;20080;-70
2021/01/05 00:19:47;;;;;;;3.53;2.13;;;;;;;0.95;56.51;101984.78;5005254;28;20088;-71
2021/01/05 00:22:13;;;;;;;4.43;1.73;;;;;;;0.51;57.64;101996.00;5006116;28;20550;-70
2021/01/05 00:24:39;;;;;;;6.22;1.75;;;;;;;0.73;57.04;101996.44;4999587;28;20061;-72
2021/01/05 00:27:06;;;;;;;7.75;2.05;;;;;;;0.72;56.98;102003.25;5010513;28;20064;-71
2021/01/05 00:29:33;;;;;;;7.90;1.98;;;;;;;0.25;58.35;102000.59;5008931;28;20034;-69
2021/01/05 00:32:18;;;;;;;2.53;1.75;;;;;;;0.73;57.25;101992.16;5019025;28;20119;-69
2021/01/05 00:34:45;;;;;;;2.90;1.38;;;;;;;0.93;56.71;101995.09;5016637;28;20038;-69
2021/01/05 00:37:13;;;;;;;3.20;2.08;;;;;;;0.88;56.53;101983.81;5016986;28;20034;-69
2021/01/05 00:39:38;;;;;;;5.20;1.90;;;;;;;1.04;56.08;101987.56;5016449;28;20212;-69
2021/01/05 00:42:04;;;;;;;3.72;1.55;;;;;;;1.22;55.81;101982.72;5000686;28;20069;-70
2021/01/05 00:44:29;;;;;;;4.75;1.48;;;;;;;1.12;56.02;101991.13;5004379;28;20061;-72
2021/01/05 00:46:56;;;;;;;7.85;1.88;;;;;;;0.68;56.98;101989.50;5004736;28;20491;-71
2021/01/05 00:49:22;;;;;;;4.88;1.48;;;;;;;0.96;56.53;101991.69;5015897;28;20557;-70
2021/01/05 00:51:47;;;;;;;4.85;1.80;;;;;;;1.10;56.27;101988.53;5009085;28;20122;-70
2021/01/05 00:54:14;;;;;;;6.43;1.60;;;;;;;0.93;56.72;101983.94;5019786;28;20121;-70
2021/01/05 00:56:40;;;;;;;3.35;1.80;;;;;;;1.09;56.04;101988.50;5007133;28;20053;-70
2021/01/05 00:59:06;;;;;;;10.52;1.92;;;;;;;0.37;57.87;101987.16;5010989;28;20037;-70
2021/01/05 01:01:32;;;;;;;2.15;1.40;;;;;;;0.92;56.56;101983.03;5011532;28;20084;-71
2021/01/05 01:03:58;;;;;;;4.13;1.88;;;;;;;1.01;56.37;101990.91;5012929;28;20030;-71
2021/01/05 01:06:24;;;;;;;3.63;1.13;;;;;;;1.10;55.98;101992.78;5014656;28;20066;-70
2021/01/05 01:08:50;;;;;;;5.15;1.70;;;;;;;1.17;55.73;101999.81;4992502;28;20034;-71
2021/01/05 01:11:17;;;;;;;4.57;2.03;;;;;;;1.17;55.98;101989.50;5008779;28;20703;-71
2021/01/05 01:13:43;;;;;;;6.32;1.35;;;;;;;1.06;56.06;101997.03;5006058;28;20027;-70
2021/01/05 01:16:09;;;;;;;4.32;1.35;;;;;;;0.92;56.52;101987.31;4996439;28;20033;-71
2021/01/05 01:18:35;;;;;;;3.42;2.35;;;;;;;1.17;56.06;101993.75;4996022;28;20030;-71
2021/01/05 01:21:03;;;;;;;3.53;1.20;;;;;;;1.21;55.64;101983.53;5010903;28;20491;-71
2021/01/05 01:23:28;;;;;;;5.05;2.08;;;;;;;0.78;56.83;101999.94;5010767;28;20026;-71
2021/01/05 01:25:58;;;;;;;4.03;1.52;;;;;;;0.92;56.57;101997.63;5004409;28;20037;-71
2021/01/05 01:28:26;;;;;;;3.72;1.75;;;;;;;0.86;56.58;101982.94;5010867;28;20083;-70
2021/01/05 01:30:52;;;;;;;3.53;1.55;;;;;;;0.86;56.51;101999.25;5009428;28;20739;-71
2021/01/05 01:33:22;;;;;;;5.65;2.33;;;;;;;1.22;55.60;101994.72;5005173;28;20099;-70
2021/01/05 01:35:50;;;;;;;5.75;1.60;;;;;;;1.34;55.16;102000.06;4993366;28;20037;-70
2021/01/05 01:38:15;;;;;;;4.03;1.35;;;;;;;1.21;55.67;102005.84;5016344;28;20033;-71
2021/01/05 01:40:56;;;;;;;1.95;1.00;;;;;;;1.31;55.44;102007.75;5019395;28;20026;-71
2021/01/05 01:43:27;;;;;;;5.28;2.00;;;;;;;1.30;55.46;101998.28;5007161;28;20048;-71
2021/01/05 01:45:55;;;;;;;5.65;1.67;;;;;;;1.11;56.20;102000.56;5007906;28;20041;-70
2021/01/05 01:48:30;;;;;;;4.97;1.92;;;;;;;1.05;56.14;101992.72;4994705;28;20026;-70
2021/01/05 01:51:00;;;;;;;7.85;1.65;;;;;;;0.89;56.72;102001.00;5010413;28;20478;-70
2021/01/05 01:54:05;;;;;;;4.47;1.80;;;;;;;1.02;56.26;102005.53;4995537;28;20040;-70
2021/01/05 01:57:12;;;;;;;4.60;1.60;;;;;;;0.90;56.70;101995.00;5015536;28;20030;-70
2021/01/05 02:00:07;;;;;;;7.38;1.90;;;;;;;1.20;55.88;101994.69;5005162;28;20069;-71
2021/01/05 02:03:07;;;;;;;4.88;1.25;;;;;;;1.14;56.07;101993.72;4993935;28;20030;-71
2021/01/05 02:05:47;;;;;;;4.22;1.42;;;;;;;1.18;56.00;101985.22;5016953;28;20320;-71
2021/01/05 02:08:26;;;;;;;3.08;1.80;;;;;;;1.16;55.92;101986.91;4996658;28;20035;-71
2021/01/05 02:11:06;;;;;;;5.95;1.83;;;;;;;0.79;57.12;101988.81;5006320;28;21271;-71
2021/01/05 02:14:04;;;;;;;2.58;1.05;;;;;;;1.14;56.31;101983.44;5003955;28;20045;-71
2021/01/05 02:17:08;;;;;;;7.90;2.15;;;;;;;1.00;56.81;101986.63;4999273;28;20045;-71
2021/01/05 02:20:14;;;;;;;7.22;1.60;;;;;;;1.03;56.54;101976.38;5003294;28;20057;-70
2021/01/05 02:22:52;;;;;;;14.80;1.55;;;;;;;0.94;57.06;101980.50;5022102;28;20101;-71
2021/01/05 02:25:33;;;;;;;5.32;1.13;;;;;;;1.13;56.63;101976.53;4999577;28;20056;-70
2021/01/05 02:28:03;;;;;;;3.83;1.50;;;;;;;0.88;57.12;101970.94;5010153;28;20026;-70
2021/01/05 02:30:39;;;;;;;4.65;1.77;;;;;;;0.83;57.67;101976.00;5006464;28;20499;-71
2021/01/05 02:33:34;;;;;;;4.53;1.65;;;;;;;0.98;57.37;101978.00;5007577;28;20105;-71
2021/01/05 02:36:26;;;;;;;4.97;1.10;;;;;;;1.23;56.80;101974.13;4993558;28;20515;-70
2021/01/05 02:39:22;;;;;;;5.63;1.40;;;;;;;1.05;56.89;101977.25;5011091;28;20518;-70
2021/01/05 02:42:28;;;;;;;8.13;2.05;;;;;;;1.01;57.11;101972.03;5015406;28;20041;-70
2021/01/05 02:45:19;;;;;;;3.22;1.52;;;;;;;1.14;56.75;101973.13;5016074;28;20513;-70
2021/01/05 02:48:15;;;;;;;6.18;1.58;;;;;;;1.11;56.86;101973.94;5006037;28;20068;-70
2021/01/05 02:51:09;;;;;;;3.30;1.35;;;;;;;1.02;56.90;101974.66;5008386;28;20091;-69
2021/01/05 02:54:18;;;;;;;4.93;1.67;;;;;;;1.18;56.63;101968.06;5003543;28;20045;-70
2021/01/05 02:57:21;;;;;;;2.72;1.45;;;;;;;1.00;57.08;101960.88;5008467;28;20048;-73
2021/01/05 03:00:24;;;;;;;4.68;1.30;;;;;;;0.95;57.40;101971.94;5011226;28;20044;-70
2021/01/05 03:03:24;;;;;;;3.88;1.33;;;;;;;0.71;58.05;101965.50;5008723;28;20049;-70
2021/01/05 03:06:14;;;;;;;1.90;1.00;;;;;;;1.03;57.10;101965.22;5014984;28;20466;-69
2021/01/05 03:09:21;;;;;;;4.05;1.30;;;;;;;1.27;56.12;101957.03;4994496;28;20092;-70
2021/01/05 03:12:43;;;;;;;3.28;1.33;;;;;;;1.01;57.06;101957.44;5003929;28;20091;-70
2021/01/05 03:15:33;;;;;;;4.03;1.20;;;;;;;0.83;57.49;101952.00;5008449;28;20060;-70
2021/01/05 03:18:41;;;;;;;2.97;1.33;;;;;;;1.10;56.63;101959.31;5018273;28;20529;-71
2021/01/05 03:21:30;;;;;;;6.25;1.13;;;;;;;0.90;57.28;101957.28;5014089;28;20092;-71
2021/01/05 03:24:26;;;;;;;10.95;1.23;;;;;;;1.16;56.37;101961.16;5009715;28;20042;-70
2021/01/05 03:27:19;;;;;;;5.00;1.55;;;;;;;1.02;56.70;101964.34;5009257;28;20104;-70
2021/01/05 03:30:19;;;;;;;3.85;1.10;;;;;;;1.21;56.21;101960.38;5008266;28;20044;-70
2021/01/05 03:33:03;;;;;;;2.83;1.30;;;;;;;1.34;55.81;101961.44;5015429;28;20044;-69
2021/01/05 03:35:48;;;;;;;2.13;1.15;;;;;;;0.81;56.95;101966.53;5013024;28;20048;-71
2021/01/05 03:38:32;;;;;;;6.38;1.40;;;;;;;1.06;56.26;101960.09;5008960;28;20206;-70
2021/01/05 03:41:16;;;;;;;4.82;0.80;;;;;;;1.20;55.94;101960.34;5010833;28;20041;-70
2021/01/05 03:44:00;;;;;;;2.60;1.00;;;;;;;1.38;55.29;101960.66;5015692;28;20100;-70
2021/01/05 03:46:44;;;;;;;6.97;1.15;;;;;;;1.28;55.53;101956.19;5005465;28;20107;-69
2021/01/05 03:49:28;;;;;;;8.48;1.48;;;;;;;1.26;55.55;101968.16;5008376;28;20051;-70
2021/01/05 03:52:12;;;;;;;5.20;1.25;;;;;;;1.32;55.45;101963.97;5008337;28;20063;-69
2021/01/05 03:54:56;;;;;;;3.20;0.70;;;;;;;1.09;56.07;101970.47;5022752;28;20045;-71
2021/01/05 03:57:45;;;;;;;3.55;1.20;;;;;;;1.24;55.86;101963.00;4991183;28;20779;-70
2021/01/05 04:00:29;;;;;;;2.92;1.05;;;;;;;1.38;55.39;101962.38;5007368;28;20048;-70
2021/01/05 04:03:00;;;;;;;4.95;1.05;;;;;;;1.24;55.43;101967.31;4992354;28;20072;-70
2021/01/05 04:05:28;;;;;;;4.60;1.50;;;;;;;1.11;56.03;101964.50;5007218;28;20120;-70
2021/01/05 04:07:54;;;;;;;4.25;1.35;;;;;;;1.14;55.77;101965.41;5010655;28;20037;-70
2021/01/05 04:10:20;;;;;;;3.05;1.17;;;;;;;0.90;56.49;101961.53;4992485;28;20244;-70
2021/01/05 04:12:45;;;;;;;2.40;1.23;;;;;;;1.03;56.25;101966.06;5001430;28;20505;-70
2021/01/05 04:15:23;;;;;;;1.60;0.90;;;;;;;1.32;55.49;101968.28;5011779;28;20030;-72
2021/01/05 04:17:49;;;;;;;3.72;0.82;;;;;;;1.20;55.71;101962.94;5007852;28;20032;-72
2021/01/05 04:20:15;;;;;;;7.80;1.30;;;;;;;1.14;55.68;101967.97;5013933;28;20447;-71
2021/01/05 04:22:41;;;;;;;2.53;1.27;;;;;;;1.42;54.97;101970.19;5001666;28;20108;-71
2021/01/05 04:25:08;;;;;;;9.02;1.55;;;;;;;1.03;56.06;101970.34;5007760;28;20088;-70
2021/01/05 04:27:33;;;;;;;4.40;0.80;;;;;;;1.14;55.88;101962.81;5007297;28;20331;-70
2021/01/05 04:29:59;;;;;;;5.90;1.95;;;;;;;1.38;55.37;101973.53;4993346;28;20025;-71
2021/01/05 04:32:24;;;;;;;4.38;1.25;;;;;;;1.07;56.24;101969.56;5010003;28;20564;-72
2021/01/05 04:34:50;;;;;;;8.88;2.65;;;;;;;1.19;55.73;101966.34;5016599;28;20438;-70
2021/01/05 04:37:15;;;;;;;5.47;1.27;;;;;;;1.04;55.94;101967.81;5013717;28;20030;-70
2021/01/05 04:39:41;;;;;;;5.25;1.00;;;;;;;1.38;55.20;101963.22;5025276;28;20034;-70
2021/01/05 04:42:31;;;;;;;3.45;1.23;;;;;;;1.10;55.62;101962.78;5018173;28;20707;-70
2021/01/05 04:45:08;;;;;;;3.15;0.88;;;;;;;1.19;55.59;101966.34;5013454;28;20112;-70
2021/01/05 04:48:04;;;;;;;5.28;1.00;;;;;;;1.47;55.11;101968.53;5012685;28;20036;-71
2021/01/05 04:50:38;;;;;;;2.92;1.35;;;;;;;1.20;55.69;101965.50;4996624;28;20125;-70
2021/01/05 04:53:15;;;;;;;9.48;0.93;;;;;;;1.29;55.50;101973.38;5010986;28;20490;-70
2021/01/05 04:56:07;;;;;;;4.82;1.30;;;;;;;1.19;55.70;101972.34;5011372;28;20045;-70
2021/01/05 04:58:41;;;;;;;7.85;1.40;;;;;;;1.07;55.82;101973.00;5007485;28;20113;-70
2021/01/05 05:01:14;;;;;;;3.60;1.40;;;;;;;1.39;55.53;101969.22;5018768;28;20034;-70
2021/01/05 05:04:12;;;;;;;3.35;1.98;;;;;;;1.29;55.52;101975.97;5020548;28;20663;-70
2021/01/05 05:06:46;;;;;;;7.63;2.13;;;;;;;1.61;54.48;101983.34;4996696;28;20100;-70
2021/01/05 05:09:22;;;;;;;6.68;1.75;;;;;;;1.48;54.83;101980.59;5016443;28;20026;-70
2021/01/05 05:12:15;;;;;;;5.50;1.27;;;;;;;1.22;55.22;101976.72;5010091;28;20041;-70
2021/01/05 05:14:40;;;;;;;;;;;;;;;1.25;55.41;101971.59;5029532;28;20112;-70
2021/01/05 05:17:27;;;;;;;4.40;1.20;;;;;;;0.96;56.11;101971.09;5009160;28;20390;-70
2021/01/05 05:20:36;;;;;;;4.22;0.95;;;;;;;1.05;56.02;101973.84;5007540;28;20041;-70
2021/01/05 05:23:13;;;;;;;4.15;1.52;;;;;;;1.40;55.11;101971.88;4992180;28;20073;-70
2021/01/05 05:25:48;;;;;;;15.43;2.17;;;;;;;1.22;55.43;101971.56;5007360;28;20095;-70
2021/01/05 05:29:00;;;;;;;5.45;1.33;;;;;;;1.45;55.23;101974.53;5001243;28;20080;-70
2021/01/05 05:31:30;;;;;;;3.72;1.10;;;;;;;1.28;55.39;101982.81;4994069;28;20101;-71
2021/01/05 05:34:04;;;;;;;6.30;1.40;;;;;;;1.17;55.58;101973.16;4996490;28;20041;-70
2021/01/05 05:36:48;;;;;;;2.78;0.80;;;;;;;1.41;55.19;101971.03;5011423;28;20530;-70
2021/01/05 05:39:29;;;;;;;6.25;0.95;;;;;;;1.26;55.55;101981.03;5010632;28;20044;-70
2021/01/05 05:42:16;;;;;;;2.97;1.10;;;;;;;1.10;55.62;101977.34;5002695;28;20041;-70
2021/01/05 05:44:52;;;;;;;2.55;1.27;;;;;;;0.84;56.46;101979.47;5010610;28;20042;-70
2021/01/05 05:47:22;;;;;;;5.93;1.30;;;;;;;0.93;56.30;101974.50;5007234;28;20049;-70
2021/01/05 05:50:07;;;;;;;4.78;1.40;;;;;;;0.87;56.65;101971.81;5022255;28;20503;-70
2021/01/05 05:52:32;;;;;;;3.67;1.08;;;;;;;0.65;56.90;101980.81;5006230;28;20491;-70
2021/01/05 05:54:59;;;;;;;7.32;1.25;;;;;;;0.48;57.40;101983.09;4992876;28;20037;-70
2021/01/05 05:57:45;;;;;;;2.80;0.75;;;;;;;0.93;56.17;101973.63;5014035;28;20032;-70
2021/01/05 06:00:14;;;;;;;2.25;0.68;;;;;;;0.94;55.93;101973.63;4991556;28;20036;-70
2021/01/05 06:02:40;;;;;;;4.75;1.48;;;;;;;1.30;54.88;101977.69;5009036;28;20046;-70
2021/01/05 06:05:25;;;;;;;4.55;0.75;;;;;;;0.95;55.85;101977.97;5008469;28;20033;-70
2021/01/05 06:07:51;;;;;;;6.07;1.27;;;;;;;0.94;56.14;101986.50;5010046;28;20099;-70
2021/01/05 06:10:16;;;;;;;4.57;1.20;;;;;;;0.97;56.52;101976.28;5012861;28;20041;-70
2021/01/05 06:12:42;;;;;;;3.50;0.98;;;;;;;0.74;57.18;101983.56;5019850;28;20041;-72
2021/01/05 06:15:08;;;;;;;4.25;1.17;;;;;;;1.08;56.32;101984.16;5007005;28;20030;-70
2021/01/05 06:17:34;;;;;;;4.13;0.80;;;;;;;0.96;56.43;101974.53;5013001;28;20036;-70
2021/01/05 06:20:00;;;;;;;3.30;1.10;;;;;;;1.05;56.34;101990.13;5016490;28;20030;-70
2021/01/05 06:22:25;;;;;;;2.85;0.77;;;;;;;0.84;56.71;101980.34;4994724;28;20041;-71
2021/01/05 06:24:51;;;;;;;2.92;1.65;;;;;;;0.55;57.61;101986.66;5005975;28;20072;-70
2021/01/05 06:27:16;;;;;;;1.67;0.73;;;;;;;0.87;56.62;101982.09;5014501;28;20036;-72
2021/01/05 06:29:42;;;;;;;1.83;0.80;;;;;;;0.86;56.92;101977.81;5013874;28;20053;-71
2021/01/05 06:32:08;;;;;;;13.38;1.25;;;;;;;1.12;56.23;101985.97;5008458;28;20092;-71
2021/01/05 06:34:33;;;;;;;5.68;0.77;;;;;;;0.88;56.73;101983.81;5019781;28;20459;-71
2021/01/05 06:36:59;;;;;;;3.53;0.50;;;;;;;0.82;57.04;101979.44;5010335;28;20033;-71
2021/01/05 06:39:25;;;;;;;1.88;0.60;;;;;;;0.64;57.53;101991.97;5013672;28;20117;-72
2021/01/05 06:41:51;;;;;;;5.63;0.95;;;;;;;0.61;57.45;101992.78;4995833;28;20030;-72
2021/01/05 06:44:16;;;;;;;3.78;1.30;;;;;;;0.66;57.36;101991.16;5012317;28;20519;-71
2021/01/05 06:46:42;;;;;;;2.95;0.82;;;;;;;0.81;56.87;101989.69;5012043;28;20033;-71
2021/01/05 06:49:07;;;;;;;4.70;0.95;;;;;;;1.02;56.55;101990.09;5019767;28;20041;-71
2021/01/05 06:51:33;;;;;;;3.10;1.05;;;;;;;1.20;56.21;101991.25;5020039;28;20049;-71
2021/01/05 06:53:59;;;;;;;5.68;0.85;;;;;;;1.05;56.69;101997.88;5013150;28;20026;-71
2021/01/05 06:56:25;;;;;;;3.22;0.98;;;;;;;1.29;55.95;101989.69;5007079;28;20034;-71
2021/01/05 06:58:50;;;;;;;2.92;0.93;;;;;;;1.21;56.14;101985.25;5017815;28;20026;-72
2021/01/05 07:01:16;;;;;;;2.05;0.93;;;;;;;0.99;56.83;101984.00;5002807;28;20526;-71
2021/01/05 07:03:42;;;;;;;2.08;0.95;;;;;;;0.90;56.75;101995.00;5007133;28;20041;-71
2021/01/05 07:06:07;;;;;;;5.38;0.70;;;;;;;1.08;56.50;101995.38;5009167;28;20046;-71
2021/01/05 07:08:33;;;;;;;6.35;0.85;;;;;;;0.71;57.66;102000.69;5019721;28;20030;-71
2021/01/05 07:10:59;;;;;;;6.53;1.95;;;;;;;0.81;57.27;101995.72;5006088;28;20798;-71
2021/01/05 07:13:24;;;;;;;4.93;0.90;;;;;;;0.61;57.80;101999.63;4996966;28;20034;-71
2021/01/05 07:15:50;;;;;;;3.55;1.25;;;;;;;0.89;57.24;102006.16;5012347;28;20057;-71
2021/01/05 07:18:15;;;;;;;6.65;0.73;;;;;;;0.73;57.79;102002.44;5010664;28;20029;-71
2021/01/05 07:20:41;;;;;;;2.05;0.90;;;;;;;1.18;56.57;102000.66;5015663;28;20042;-71
2021/01/05 07:23:07;;;;;;;1.85;0.70;;;;;;;0.96;57.05;102010.56;4993869;28;20038;-71
2021/01/05 07:25:32;;;;;;;3.65;0.88;;;;;;;0.67;57.73;102003.16;5015977;28;20021;-71
2021/01/05 07:27:58;;;;;;;4.38;0.90;;;;;;;0.89;57.19;101993.28;5005899;28;20045;-71
2021/01/05 07:30:24;;;;;;;5.97;1.00;;;;;;;0.87;57.31;102008.69;5000217;28;20042;-72
2021/01/05 07:32:50;;;;;;;4.43;1.02;;;;;;;0.95;57.04;102003.72;5010820;28;20042;-70
2021/01/05 07:35:15;;;;;;;3.80;1.20;;;;;;;1.09;56.73;102009.97;5012880;28;20029;-70
2021/01/05 07:37:43;;;;;;;2.13;0.93;;;;;;;0.68;57.89;102017.78;5010084;28;20026;-71
2021/01/05 07:40:11;;;;;;;9.63;1.25;;;;;;;0.88;57.50;102017.28;5027693;28;20034;-72
2021/01/05 07:42:36;;;;;;;2.08;0.85;;;;;;;0.90;57.25;102007.88;5007746;28;20033;-71
2021/01/05 07:45:15;;;;;;;2.80;0.90;;;;;;;1.36;56.16;102010.41;4995863;28;20038;-71
2021/01/05 07:47:41;;;;;;;4.00;1.42;;;;;;;1.10;56.46;102014.28;5005579;28;20045;-70
2021/01/05 07:50:08;;;;;;;3.25;0.88;;;;;;;0.94;57.11;102016.53;5003666;28;20022;-71
2021/01/05 07:52:38;;;;;;;4.50;1.48;;;;;;;1.23;56.35;102022.22;5003865;28;20049;-70
2021/01/05 07:55:06;;;;;;;4.50;1.00;;;;;;;1.14;56.83;102014.31;5012123;28;20040;-70
2021/01/05 07:57:31;;;;;;;2.75;0.70;;;;;;;0.78;57.60;102025.69;5013029;28;20033;-70
2021/01/05 07:59:57;;;;;;;4.13;1.13;;;;;;;1.10;56.45;102024.59;4992642;28;20036;-70
2021/01/05 08:02:22;;;;;;;3.50;0.75;;;;;;;1.05;56.92;102025.31;5026183;28;20034;-70
2021/01/05 08:04:48;;;;;;;11.45;0.90;;;;;;;1.15;56.73;102026.34;5008439;28;20112;-70
2021/01/05 08:07:14;;;;;;;2.97;1.10;;;;;;;1.27;56.45;102031.72;5013022;28;20418;-70
2021/01/05 08:09:41;;;;;;;2.53;0.70;;;;;;;1.24;56.69;102027.41;5009822;28;20038;-72
2021/01/05 08:12:18;;;;;;;4.13;0.85;;;;;;;1.23;56.66;102030.78;5017246;28;20041;-71
2021/01/05 08:14:45;;;;;;;5.90;1.52;;;;;;;1.09;56.93;102033.13;5017048;28;20069;-71
2021/01/05 08:17:11;;;;;;;3.28;0.88;;;;;;;1.26;56.54;102030.88;5010002;28;20037;-71
2021/01/05 08:19:41;;;;;;;3.97;1.02;;;;;;;1.13;56.68;102033.19;5012029;28;20034;-70
2021/01/05 08:22:06;;;;;;;4.90;1.60;;;;;;;1.49;55.82;102031.28;5010639;28;20034;-70
2021/01/05 08:24:32;;;;;;;6.72;1.52;;;;;;;1.23;56.77;102035.94;5002808;28;20039;-69
2021/01/05 08:26:57;;;;;;;2.38;1.08;;;;;;;1.29;56.30;102037.78;5005775;28;20145;-71
2021/01/05 08:29:23;;;;;;;3.75;1.23;;;;;;;1.31;56.54;102042.09;5006613;28;20112;-71
2021/01/05 08:31:49;;;;;;;2.92;0.90;;;;;;;1.29;56.30;102040.34;5004071;28;20438;-71
2021/01/05 08:34:16;;;;;;;2.92;0.85;;;;;;;1.31;56.16;102038.69;5003562;28;20052;-71
2021/01/05 08:36:42;;;;;;;1.90;0.85;;;;;;;1.27;56.47;102036.88;5004033;28;20030;-71
2021/01/05 08:39:10;;;;;;;3.83;1.00;;;;;;;1.35;56.29;102048.19;5007185;28;20037;-71
2021/01/05 08:41:36;;;;;;;5.60;1.52;;;;;;;1.38;56.06;102044.78;5006577;28;20065;-71
2021/01/05 08:44:27;;;;;;;2.25;1.08;;;;;;;1.21;56.34;102039.34;5000614;28;20116;-71
2021/01/05 08:47:03;;;;;;;2.30;1.27;;;;;;;1.09;56.57;102048.59;5010443;28;20480;-72
2021/01/05 08:49:31;;;;;;;5.25;1.95;;;;;;;1.40;55.79;102038.84;5008595;28;20087;-70
2021/01/05 08:51:56;;;;;;;6.80;1.20;;;;;;;1.47;55.45;102043.25;5007365;28;20034;-69
2021/01/05 08:54:22;;;;;;;4.80;1.00;;;;;;;1.45;55.66;102046.66;5009480;28;20107;-71
2021/01/05 08:56:56;;;;;;;5.65;1.38;;;;;;;1.54;55.42;102045.94;5003199;28;20534;-71
2021/01/05 08:59:23;;;;;;;4.50;0.98;;;;;;;1.23;56.48;102048.81;5006394;28;20040;-71
2021/01/05 09:01:49;;;;;;;5.03;1.08;;;;;;;1.50;55.62;102045.88;5004253;28;20123;-71
2021/01/05 09:04:15;;;;;;;2.15;0.80;;;;;;;1.39;56.03;102047.38;5009342;28;20033;-71
2021/01/05 09:06:40;;;;;;;3.63;0.63;;;;;;;1.73;54.89;102050.56;5006216;28;20121;-71
2021/01/05 09:09:06;;;;;;;1.63;0.50;;;;;;;1.50;55.51;102050.16;4991988;28;20781;-72
2021/01/05 09:11:32;;;;;;;3.58;1.00;;;;;;;1.36;55.98;102051.63;5007991;28;20499;-71
2021/01/05 09:13:58;;;;;;;5.05;1.25;;;;;;;1.59;55.39;102049.47;4989928;28;20030;-71
2021/01/05 09:16:26;;;;;;;2.58;0.88;;;;;;;1.59;54.97;102058.06;5009556;28;20049;-71
2021/01/05 09:18:53;;;;;;;1.40;0.50;;;;;;;1.47;55.53;102066.47;5009147;28;20040;-71
2021/01/05 09:21:22;;;;;;;4.68;0.80;;;;;;;1.24;55.79;102057.44;5008728;28;20384;-73
2021/01/05 09:23:49;;;;;;;5.30;1.02;;;;;;;1.47;55.33;102053.56;5014799;28;20041;-70
2021/01/05 09:26:25;;;;;;;3.50;1.02;;;;;;;1.48;55.44;102059.59;5005590;28;20109;-70
2021/01/05 09:28:51;;;;;;;5.07;0.65;;;;;;;1.55;55.21;102057.97;5010291;28;20160;-72
2021/01/05 09:31:17;;;;;;;1.85;0.68;;;;;;;1.48;55.43;102057.91;5005849;28;20117;-71
2021/01/05 09:33:43;;;;;;;1.85;0.80;;;;;;;1.61;55.15;102060.66;5009175;28;20038;-74
2021/01/05 09:36:10;;;;;;;4.13;0.90;;;;;;;1.79;54.60;102063.53;5002959;28;20034;-72
2021/01/05 09:38:38;;;;;;;2.75;0.50;;;;;;;1.71;54.82;102066.00;5012088;28;20030;-72
2021/01/05 09:41:03;;;;;;;3.85;1.15;;;;;;;1.59;55.12;102065.78;5015875;28;20032;-70
2021/01/05 09:43:30;;;;;;;1.98;0.43;;;;;;;1.84;54.43;102061.91;5013692;28;20033;-72
2021/01/05 09:45:56;;;;;;;2.90;0.85;;;;;;;1.50;55.10;102061.34;5003621;28;20594;-71
2021/01/05 09:48:21;;;;;;;1.27;0.47;;;;;;;1.60;54.83;102064.09;5007997;28;20129;-71
2021/01/05 09:50:47;;;;;;;4.45;0.95;;;;;;;1.43;55.61;102059.50;5007344;28;20046;-72
2021/01/05 09:53:13;;;;;;;3.17;0.60;;;;;;;1.56;55.44;102060.59;5011564;28;20030;-72
2021/01/05 09:55:38;;;;;;;4.20;0.85;;;;;;;1.66;55.00;102056.44;4990898;28;20049;-71
2021/01/05 09:58:05;;;;;;;1.92;0.80;;;;;;;1.62;54.96;102057.25;4988963;28;20096;-71
2021/01/05 10:00:31;;;;;;;1.95;0.57;;;;;;;1.71;54.66;102059.97;5006948;28;20106;-72
2021/01/05 10:02:57;;;;;;;9.10;1.77;;;;;;;1.28;56.06;102064.34;5003910;28;20189;-71
2021/01/05 10:05:23;;;;;;;1.20;0.50;;;;;;;1.36;55.82;102057.66;5007147;28;20344;-72
2021/01/05 10:07:49;;;;;;;2.17;0.75;;;;;;;1.44;55.60;102061.25;5006617;28;20038;-71
2021/01/05 10:10:19;;;;;;;5.13;1.15;;;;;;;1.80;54.73;102059.25;4997351;28;20022;-70
2021/01/05 10:12:44;;;;;;;1.70;0.60;;;;;;;1.64;54.92;102053.88;5008272;28;20506;-71
2021/01/05 10:15:11;;;;;;;7.80;1.10;;;;;;;1.55;55.39;102052.81;5012941;28;20026;-71
2021/01/05 10:17:37;;;;;;;2.92;0.80;;;;;;;1.48;55.55;102062.16;5003972;28;20025;-70
2021/01/05 10:20:06;;;;;;;2.30;0.65;;;;;;;1.66;54.93;102059.03;5002692;28;20036;-70
2021/01/05 10:22:32;;;;;;;1.70;0.80;;;;;;;1.79;54.72;102060.09;5005451;28;20034;-71
2021/01/05 10:24:57;;;;;;;4.22;0.98;;;;;;;1.76;54.73;102062.63;5005989;28;20026;-70
2021/01/05 10:27:23;;;;;;;4.15;1.25;;;;;;;1.91;54.34;102060.28;5012039;28;20084;-72
2021/01/05 10:29:50;;;;;;;4.20;0.80;;;;;;;1.97;54.09;102068.09;5009077;28;20044;-72
2021/01/05 10:32:16;;;;;;;1.92;1.02;;;;;;;2.15;53.91;102062.34;5006670;28;20030;-72
2021/01/05 10:34:42;;;;;;;1.90;0.63;;;;;;;1.83;54.54;102064.47;4993779;28;20034;-70
2021/01/05 10:37:07;;;;;;;2.60;0.55;;;;;;;1.85;54.50;102057.63;5002874;28;21391;-70
2021/01/05 10:39:33;;;;;;;2.03;0.70;;;;;;;1.79;55.05;102062.66;5006966;28;20043;-70
2021/01/05 10:42:01;;;;;;;3.17;0.93;;;;;;;1.60;55.20;102056.38;5011045;28;20030;-71
2021/01/05 10:44:26;;;;;;;3.60;1.05;;;;;;;1.71;55.18;102059.97;5021008;28;20026;-71
2021/01/05 10:46:59;;;;;;;1.85;0.50;;;;;;;1.76;54.87;102063.50;5019710;28;20041;-71
2021/01/05 10:49:25;;;;;;;5.75;1.90;;;;;;;1.70;54.76;102065.97;5008284;28;20247;-71
2021/01/05 10:51:52;;;;;;;4.65;0.60;;;;;;;1.67;54.99;102069.38;5011146;28;20038;-71
2021/01/05 10:54:23;;;;;;;5.03;0.80;;;;;;;1.66;55.12;102074.47;4990770;28;20070;-70
2021/01/05 10:57:01;;;;;;;2.15;0.73;;;;;;;1.69;55.07;102065.09;5016582;28;20054;-71
2021/01/05 10:59:27;;;;;;;2.92;0.88;;;;;;;1.60;55.14;102064.97;5005371;28;20034;-70
2021/01/05 11:01:57;;;;;;;2.28;0.80;;;;;;;1.86;54.73;102069.66;5009112;28;20850;-71
2021/01/05 11:04:26;;;;;;;3.40;1.73;;;;;;;1.66;54.92;102074.47;5018133;28;20034;-71
2021/01/05 11:06:59;;;;;;;6.05;0.82;;;;;;;1.65;54.93;102065.03;5019815;28;20034;-71
2021/01/05 11:09:26;;;;;;;3.63;0.70;;;;;;;1.84;54.71;102067.06;5007865;28;20029;-73
2021/01/05 11:12:04;;;;;;;3.47;0.52;;;;;;;1.89;54.78;102062.84;5000251;28;20504;-72
2021/01/05 11:14:30;;;;;;;4.18;0.70;;;;;;;1.98;54.14;102063.84;5005192;28;20022;-72
2021/01/05 11:16:56;;;;;;;2.85;0.45;;;;;;;1.80;54.67;102059.25;4989938;28;20084;-72
2021/01/05 11:19:22;;;;;;;2.28;0.68;;;;;;;1.87;54.54;102050.78;5004333;28;20650;-70
2021/01/05 11:21:55;;;;;;;2.38;0.57;;;;;;;1.94;54.14;102058.59;5008230;28;20693;-72
2021/01/05 11:24:21;;;;;;;4.55;0.82;;;;;;;1.69;54.76;102056.50;5010637;28;20025;-70
2021/01/05 11:26:48;;;;;;;11.48;1.30;;;;;;;1.91;54.24;102048.25;5000714;28;20034;-70
2021/01/05 11:29:15;;;;;;;6.80;0.65;;;;;;;2.06;53.97;102051.91;5012519;28;20033;-71
2021/01/05 11:31:40;;;;;;;2.67;0.68;;;;;;;1.85;54.30;102050.75;5010072;28;20041;-71
2021/01/05 11:34:06;;;;;;;2.08;0.50;;;;;;;1.82;54.45;102053.28;5003963;28;20049;-70
2021/01/05 11:36:32;;;;;;;6.30;0.73;;;;;;;1.88;54.20;102040.47;5010367;28;20099;-71
2021/01/05 11:38:58;;;;;;;2.72;0.60;;;;;;;1.91;54.13;102043.09;5005515;28;20026;-72
2021/01/05 11:41:28;;;;;;;2.53;0.88;;;;;;;1.59;55.03;102039.16;5003954;28;20125;-70
2021/01/05 11:43:55;;;;;;;2.70;1.05;;;;;;;1.90;54.70;102036.19;4991620;28;20064;-71
2021/01/05 11:46:21;;;;;;;4.70;0.90;;;;;;;2.02;54.20;102040.69;5003541;28;20083;-70
2021/01/05 11:48:46;;;;;;;3.85;1.30;;;;;;;2.18;53.66;102039.19;4989346;28;20513;-71
2021/01/05 11:51:20;;;;;;;1.33;0.88;;;;;;;1.97;54.01;102036.28;5004925;28;20033;-71
2021/01/05 11:53:46;;;;;;;2.58;0.95;;;;;;;1.89;54.42;102039.63;5011583;28;20060;-70
2021/01/05 11:56:24;;;;;;;4.15;0.60;;;;;;;2.10;53.94;102038.19;4987366;28;20081;-71
2021/01/05 11:58:50;;;;;;;2.88;0.65;;;;;;;2.27;53.27;102036.72;5002749;28;20018;-70